sensor_id;sensor_type;location;lat;lon;timestamp;P1;durP1;ratioP1;P2;durP2;ratioP2
9424;SDS011;17139;52.140;11.636;2023-11-19T00:02:20;4.40;;;4.20;;
9424;SDS011;17139;52.140;11.636;2023-11-19T00:04:47;5.00;;;4.70;;
9424;SDS011;17139;52.140;11.636;2023-11-19T00:07:14;4.70;;;4.47;;
9424;SDS011;17139;52.140;11.636;2023-11-19T00:09:41;5.43;;;5.03;;
9424;SDS011;17139;52.140;11.636;2023-11-19T00:12:09;4.90;;;4.60;;
9424;SDS011;17139;52.140;11.636;2023-11-19T00:14:36;4.00;;;3.77;;
9424;SDS011;17139;52.140;11.636;2023-11-19T00:17:05;7.18;;;6.57;;
9424;SDS011;17139;52.140;11.636;2023-11-19T00:19:32;5.13;;;4.73;;
9424;SDS011;17139;52.140;11.636;2023-11-19T00:21:59;4.30;;;3.90;;
9424;SDS011;17139;52.140;11.636;2023-11-19T00:24:28;5.23;;;4.93;;
9424;SDS011;17139;52.140;11.636;2023-11-19T00:26:55;3.90;;;3.70;;
9424;SDS011;17139;52.140;11.636;2023-11-19T00:29:23;3.97;;;3.77;;
9424;SDS011;17139;52.140;11.636;2023-11-19T00:31:50;3.70;;;3.47;;
9424;SDS011;17139;52.140;11.636;2023-11-19T00:34:18;3.47;;;3.30;;
9424;SDS011;17139;52.140;11.636;2023-11-19T00:36:47;4.03;;;3.83;;
9424;SDS011;17139;52.140;11.636;2023-11-19T00:39:15;3.60;;;3.40;;
9424;SDS011;17139;52.140;11.636;2023-11-19T00:41:43;3.57;;;3.37;;
9424;SDS011;17139;52.140;11.636;2023-11-19T00:44:11;4.73;;;4.30;;
9424;SDS011;17139;52.140;11.636;2023-11-19T00:46:38;3.70;;;3.50;;
9424;SDS011;17139;52.140;11.636;2023-11-19T00:49:06;3.67;;;3.47;;
9424;SDS011;17139;52.140;11.636;2023-11-19T00:51:34;5.30;;;3.40;;
9424;SDS011;17139;52.140;11.636;2023-11-19T00:54:03;6.43;;;5.97;;
9424;SDS011;17139;52.140;11.636;2023-11-19T00:56:30;4.80;;;4.60;;
9424;SDS011;17139;52.140;11.636;2023-11-19T00:58:57;3.70;;;3.50;;
9424;SDS011;17139;52.140;11.636;2023-11-19T01:01:25;6.50;;;5.90;;
9424;SDS011;17139;52.140;11.636;2023-11-19T01:03:52;3.67;;;3.40;;
9424;SDS011;17139;52.140;11.636;2023-11-19T01:06:26;3.03;;;2.83;;
9424;SDS011;17139;52.140;11.636;2023-11-19T01:08:55;3.33;;;3.07;;
9424;SDS011;17139;52.140;11.636;2023-11-19T01:11:24;2.93;;;2.73;;
9424;SDS011;17139;52.140;11.636;2023-11-19T01:13:51;2.80;;;2.60;;
9424;SDS011;17139;52.140;11.636;2023-11-19T01:16:19;2.87;;;2.77;;
9424;SDS011;17139;52.140;11.636;2023-11-19T01:18:50;2.30;;;2.20;;
9424;SDS011;17139;52.140;11.636;2023-11-19T01:21:17;3.03;;;2.83;;
9424;SDS011;17139;52.140;11.636;2023-11-19T01:23:45;2.80;;;2.60;;
9424;SDS011;17139;52.140;11.636;2023-11-19T01:26:13;2.27;;;2.17;;
9424;SDS011;17139;52.140;11.636;2023-11-19T01:28:41;2.23;;;2.13;;
9424;SDS011;17139;52.140;11.636;2023-11-19T01:31:10;2.50;;;2.40;;
9424;SDS011;17139;52.140;11.636;2023-11-19T01:33:38;2.03;;;2.03;;
9424;SDS011;17139;52.140;11.636;2023-11-19T01:36:06;1.97;;;1.97;;
9424;SDS011;17139;52.140;11.636;2023-11-19T01:38:34;2.03;;;1.97;;
9424;SDS011;17139;52.140;11.636;2023-11-19T01:41:03;1.93;;;1.90;;
9424;SDS011;17139;52.140;11.636;2023-11-19T01:43:32;2.13;;;2.03;;
9424;SDS011;17139;52.140;11.636;2023-11-19T01:46:00;3.70;;;3.50;;
9424;SDS011;17139;52.140;11.636;2023-11-19T01:48:27;2.30;;;2.20;;
9424;SDS011;17139;52.140;11.636;2023-11-19T01:50:55;3.13;;;2.10;;
9424;SDS011;17139;52.140;11.636;2023-11-19T01:53:24;2.10;;;2.00;;
9424;SDS011;17139;52.140;11.636;2023-11-19T01:55:52;1.80;;;1.80;;
9424;SDS011;17139;52.140;11.636;2023-11-19T01:58:20;1.70;;;1.70;;
9424;SDS011;17139;52.140;11.636;2023-11-19T02:00:48;2.07;;;1.97;;
9424;SDS011;17139;52.140;11.636;2023-11-19T02:03:16;2.13;;;2.03;;
9424;SDS011;17139;52.140;11.636;2023-11-19T02:05:44;1.47;;;1.47;;
9424;SDS011;17139;52.140;11.636;2023-11-19T02:08:12;1.93;;;1.93;;
9424;SDS011;17139;52.140;11.636;2023-11-19T02:10:39;2.17;;;1.83;;
9424;SDS011;17139;52.140;11.636;2023-11-19T02:13:06;2.07;;;1.97;;
9424;SDS011;17139;52.140;11.636;2023-11-19T02:15:35;1.93;;;1.83;;
9424;SDS011;17139;52.140;11.636;2023-11-19T02:18:19;2.00;;;1.90;;
9424;SDS011;17139;52.140;11.636;2023-11-19T02:20:48;1.73;;;1.63;;
9424;SDS011;17139;52.140;11.636;2023-11-19T02:23:16;2.45;;;2.40;;
9424;SDS011;17139;52.140;11.636;2023-11-19T02:25:46;2.17;;;2.10;;
9424;SDS011;17139;52.140;11.636;2023-11-19T02:28:19;4.57;;;1.80;;
9424;SDS011;17139;52.140;11.636;2023-11-19T02:30:46;2.70;;;2.50;;
9424;SDS011;17139;52.140;11.636;2023-11-19T02:33:13;2.13;;;2.13;;
9424;SDS011;17139;52.140;11.636;2023-11-19T02:35:40;1.30;;;1.30;;
9424;SDS011;17139;52.140;11.636;2023-11-19T02:38:08;1.50;;;1.50;;
9424;SDS011;17139;52.140;11.636;2023-11-19T02:40:36;1.60;;;1.60;;
9424;SDS011;17139;52.140;11.636;2023-11-19T02:43:03;1.63;;;1.63;;
9424;SDS011;17139;52.140;11.636;2023-11-19T02:45:32;1.73;;;1.63;;
9424;SDS011;17139;52.140;11.636;2023-11-19T02:47:59;1.50;;;1.50;;
9424;SDS011;17139;52.140;11.636;2023-11-19T02:50:28;1.63;;;1.63;;
9424;SDS011;17139;52.140;11.636;2023-11-19T02:52:56;1.67;;;1.57;;
9424;SDS011;17139;52.140;11.636;2023-11-19T02:55:23;1.60;;;1.60;;
9424;SDS011;17139;52.140;11.636;2023-11-19T02:57:53;1.83;;;1.73;;
9424;SDS011;17139;52.140;11.636;2023-11-19T03:00:21;5.63;;;1.53;;
9424;SDS011;17139;52.140;11.636;2023-11-19T03:02:52;1.40;;;1.40;;
9424;SDS011;17139;52.140;11.636;2023-11-19T03:05:25;1.63;;;1.63;;
9424;SDS011;17139;52.140;11.636;2023-11-19T03:07:55;2.22;;;2.13;;
9424;SDS011;17139;52.140;11.636;2023-11-19T03:10:23;1.63;;;1.50;;
9424;SDS011;17139;52.140;11.636;2023-11-19T03:12:50;1.50;;;1.50;;
9424;SDS011;17139;52.140;11.636;2023-11-19T03:15:20;2.40;;;2.30;;
9424;SDS011;17139;52.140;11.636;2023-11-19T03:17:47;1.67;;;1.67;;
9424;SDS011;17139;52.140;11.636;2023-11-19T03:20:16;2.17;;;1.43;;
9424;SDS011;17139;52.140;11.636;2023-11-19T03:22:43;1.30;;;1.30;;
9424;SDS011;17139;52.140;11.636;2023-11-19T03:25:11;1.87;;;1.80;;
9424;SDS011;17139;52.140;11.636;2023-11-19T03:27:38;1.40;;;1.40;;
9424;SDS011;17139;52.140;11.636;2023-11-19T03:30:07;4.00;;;1.43;;
9424;SDS011;17139;52.140;11.636;2023-11-19T03:32:35;1.60;;;1.60;;
9424;SDS011;17139;52.140;11.636;2023-11-19T03:35:04;1.30;;;1.30;;
9424;SDS011;17139;52.140;11.636;2023-11-19T03:37:35;1.20;;;1.20;;
9424;SDS011;17139;52.140;11.636;2023-11-19T03:40:03;1.30;;;1.30;;
9424;SDS011;17139;52.140;11.636;2023-11-19T03:42:31;1.67;;;1.57;;
9424;SDS011;17139;52.140;11.636;2023-11-19T03:44:58;3.33;;;1.50;;
9424;SDS011;17139;52.140;11.636;2023-11-19T03:47:25;1.30;;;1.30;;
9424;SDS011;17139;52.140;11.636;2023-11-19T03:49:53;1.40;;;1.40;;
9424;SDS011;17139;52.140;11.636;2023-11-19T03:52:20;1.73;;;1.60;;
9424;SDS011;17139;52.140;11.636;2023-11-19T03:54:49;1.13;;;1.13;;
9424;SDS011;17139;52.140;11.636;2023-11-19T03:57:16;2.40;;;1.30;;
9424;SDS011;17139;52.140;11.636;2023-11-19T03:59:43;1.10;;;1.10;;
9424;SDS011;17139;52.140;11.636;2023-11-19T04:02:11;2.20;;;2.10;;
9424;SDS011;17139;52.140;11.636;2023-11-19T04:04:38;1.60;;;1.60;;
9424;SDS011;17139;52.140;11.636;2023-11-19T04:07:05;1.43;;;1.43;;
9424;SDS011;17139;52.140;11.636;2023-11-19T04:09:33;1.20;;;1.20;;
9424;SDS011;17139;52.140;11.636;2023-11-19T04:12:04;1.30;;;1.30;;
9424;SDS011;17139;52.140;11.636;2023-11-19T04:14:32;1.97;;;1.30;;
9424;SDS011;17139;52.140;11.636;2023-11-19T04:16:59;1.77;;;1.37;;
9424;SDS011;17139;52.140;11.636;2023-11-19T04:19:26;1.03;;;0.90;;
9424;SDS011;17139;52.140;11.636;2023-11-19T04:21:54;1.27;;;1.27;;
9424;SDS011;17139;52.140;11.636;2023-11-19T04:24:21;1.10;;;1.10;;
9424;SDS011;17139;52.140;11.636;2023-11-19T04:26:48;2.40;;;1.37;;
9424;SDS011;17139;52.140;11.636;2023-11-19T04:29:16;1.30;;;1.30;;
9424;SDS011;17139;52.140;11.636;2023-11-19T04:31:44;1.10;;;1.10;;
9424;SDS011;17139;52.140;11.636;2023-11-19T04:34:12;1.50;;;1.40;;
9424;SDS011;17139;52.140;11.636;2023-11-19T04:36:39;1.40;;;1.20;;
9424;SDS011;17139;52.140;11.636;2023-11-19T04:39:07;1.70;;;1.70;;
9424;SDS011;17139;52.140;11.636;2023-11-19T04:41:45;1.37;;;1.37;;
9424;SDS011;17139;52.140;11.636;2023-11-19T04:44:13;1.20;;;1.20;;
9424;SDS011;17139;52.140;11.636;2023-11-19T04:46:42;1.42;;;1.42;;
9424;SDS011;17139;52.140;11.636;2023-11-19T04:49:10;1.03;;;1.03;;
9424;SDS011;17139;52.140;11.636;2023-11-19T04:51:39;1.30;;;1.30;;
9424;SDS011;17139;52.140;11.636;2023-11-19T04:54:07;1.30;;;1.30;;
9424;SDS011;17139;52.140;11.636;2023-11-19T04:56:34;3.70;;;1.40;;
9424;SDS011;17139;52.140;11.636;2023-11-19T04:59:03;1.10;;;1.10;;
9424;SDS011;17139;52.140;11.636;2023-11-19T05:01:31;1.43;;;1.43;;
9424;SDS011;17139;52.140;11.636;2023-11-19T05:04:00;1.07;;;1.07;;
9424;SDS011;17139;52.140;11.636;2023-11-19T05:06:28;1.10;;;1.10;;
9424;SDS011;17139;52.140;11.636;2023-11-19T05:08:56;3.40;;;1.00;;
9424;SDS011;17139;52.140;11.636;2023-11-19T05:11:26;1.00;;;1.00;;
9424;SDS011;17139;52.140;11.636;2023-11-19T05:13:53;2.97;;;1.80;;
9424;SDS011;17139;52.140;11.636;2023-11-19T05:16:20;1.07;;;1.07;;
9424;SDS011;17139;52.140;11.636;2023-11-19T05:18:47;0.90;;;0.90;;
9424;SDS011;17139;52.140;11.636;2023-11-19T05:21:16;0.80;;;0.80;;
9424;SDS011;17139;52.140;11.636;2023-11-19T05:23:43;1.90;;;0.90;;
9424;SDS011;17139;52.140;11.636;2023-11-19T05:26:17;1.25;;;1.20;;
9424;SDS011;17139;52.140;11.636;2023-11-19T05:28:44;0.80;;;0.80;;
9424;SDS011;17139;52.140;11.636;2023-11-19T05:31:12;0.47;;;0.47;;
9424;SDS011;17139;52.140;11.636;2023-11-19T05:33:39;0.50;;;0.50;;
9424;SDS011;17139;52.140;11.636;2023-11-19T05:36:06;0.50;;;0.50;;
9424;SDS011;17139;52.140;11.636;2023-11-19T05:38:36;0.30;;;0.30;;
9424;SDS011;17139;52.140;11.636;2023-11-19T05:41:03;0.47;;;0.47;;
9424;SDS011;17139;52.140;11.636;2023-11-19T05:43:31;0.40;;;0.40;;
9424;SDS011;17139;52.140;11.636;2023-11-19T05:45:58;0.30;;;0.30;;
9424;SDS011;17139;52.140;11.636;2023-11-19T05:48:26;0.30;;;0.30;;
9424;SDS011;17139;52.140;11.636;2023-11-19T05:50:54;0.30;;;0.30;;
9424;SDS011;17139;52.140;11.636;2023-11-19T05:53:21;0.40;;;0.40;;
9424;SDS011;17139;52.140;11.636;2023-11-19T05:55:49;0.37;;;0.37;;
9424;SDS011;17139;52.140;11.636;2023-11-19T05:58:22;0.40;;;0.40;;
9424;SDS011;17139;52.140;11.636;2023-11-19T06:00:53;0.60;;;0.60;;
9424;SDS011;17139;52.140;11.636;2023-11-19T06:03:21;0.43;;;0.43;;
9424;SDS011;17139;52.140;11.636;2023-11-19T06:05:48;0.50;;;0.50;;
9424;SDS011;17139;52.140;11.636;2023-11-19T06:08:15;0.30;;;0.30;;
9424;SDS011;17139;52.140;11.636;2023-11-19T06:10:43;0.40;;;0.40;;
9424;SDS011;17139;52.140;11.636;2023-11-19T06:13:13;0.40;;;0.40;;
9424;SDS011;17139;52.140;11.636;2023-11-19T06:15:41;0.40;;;0.40;;
9424;SDS011;17139;52.140;11.636;2023-11-19T06:18:08;0.50;;;0.50;;
9424;SDS011;17139;52.140;11.636;2023-11-19T06:20:37;0.50;;;0.50;;
9424;SDS011;17139;52.140;11.636;2023-11-19T06:23:04;2.20;;;0.47;;
9424;SDS011;17139;52.140;11.636;2023-11-19T06:25:32;0.50;;;0.50;;
9424;SDS011;17139;52.140;11.636;2023-11-19T06:28:00;0.50;;;0.50;;
9424;SDS011;17139;52.140;11.636;2023-11-19T06:30:29;0.40;;;0.40;;
9424;SDS011;17139;52.140;11.636;2023-11-19T06:32:57;0.40;;;0.40;;
9424;SDS011;17139;52.140;11.636;2023-11-19T06:35:24;0.53;;;0.53;;
9424;SDS011;17139;52.140;11.636;2023-11-19T06:37:52;0.40;;;0.40;;
9424;SDS011;17139;52.140;11.636;2023-11-19T06:40:20;1.50;;;0.60;;
9424;SDS011;17139;52.140;11.636;2023-11-19T06:42:47;0.57;;;0.50;;
9424;SDS011;17139;52.140;11.636;2023-11-19T06:45:14;0.40;;;0.40;;
9424;SDS011;17139;52.140;11.636;2023-11-19T06:47:43;0.50;;;0.50;;
9424;SDS011;17139;52.140;11.636;2023-11-19T06:50:10;0.50;;;0.50;;
9424;SDS011;17139;52.140;11.636;2023-11-19T06:52:37;0.50;;;0.50;;
9424;SDS011;17139;52.140;11.636;2023-11-19T06:55:05;0.40;;;0.40;;
9424;SDS011;17139;52.140;11.636;2023-11-19T06:57:33;3.40;;;0.40;;
9424;SDS011;17139;52.140;11.636;2023-11-19T07:00:01;0.37;;;0.37;;
9424;SDS011;17139;52.140;11.636;2023-11-19T07:02:30;0.50;;;0.50;;
9424;SDS011;17139;52.140;11.636;2023-11-19T07:04:59;1.27;;;0.50;;
9424;SDS011;17139;52.140;11.636;2023-11-19T07:07:26;0.57;;;0.57;;
9424;SDS011;17139;52.140;11.636;2023-11-19T07:09:54;0.60;;;0.60;;
9424;SDS011;17139;52.140;11.636;2023-11-19T07:12:21;1.63;;;0.50;;
9424;SDS011;17139;52.140;11.636;2023-11-19T07:14:47;0.30;;;0.30;;
9424;SDS011;17139;52.140;11.636;2023-11-19T07:17:14;0.70;;;0.70;;
9424;SDS011;17139;52.140;11.636;2023-11-19T07:19:42;0.67;;;0.67;;
9424;SDS011;17139;52.140;11.636;2023-11-19T07:22:11;0.80;;;0.80;;
9424;SDS011;17139;52.140;11.636;2023-11-19T07:24:38;0.80;;;0.80;;
9424;SDS011;17139;52.140;11.636;2023-11-19T07:27:06;0.80;;;0.80;;
9424;SDS011;17139;52.140;11.636;2023-11-19T07:29:34;0.80;;;0.80;;
9424;SDS011;17139;52.140;11.636;2023-11-19T07:32:02;0.88;;;0.88;;
9424;SDS011;17139;52.140;11.636;2023-11-19T07:34:30;0.68;;;0.68;;
9424;SDS011;17139;52.140;11.636;2023-11-19T07:36:57;1.53;;;0.93;;
9424;SDS011;17139;52.140;11.636;2023-11-19T07:39:29;0.80;;;0.80;;
9424;SDS011;17139;52.140;11.636;2023-11-19T07:41:56;0.80;;;0.80;;
9424;SDS011;17139;52.140;11.636;2023-11-19T07:44:23;1.00;;;1.00;;
9424;SDS011;17139;52.140;11.636;2023-11-19T07:46:51;1.30;;;1.30;;
9424;SDS011;17139;52.140;11.636;2023-11-19T07:49:19;1.20;;;1.10;;
9424;SDS011;17139;52.140;11.636;2023-11-19T07:51:46;1.13;;;1.10;;
9424;SDS011;17139;52.140;11.636;2023-11-19T07:54:13;1.42;;;1.33;;
9424;SDS011;17139;52.140;11.636;2023-11-19T07:56:42;4.97;;;1.30;;
9424;SDS011;17139;52.140;11.636;2023-11-19T07:59:09;1.87;;;1.30;;
9424;SDS011;17139;52.140;11.636;2023-11-19T08:01:36;1.17;;;1.17;;
9424;SDS011;17139;52.140;11.636;2023-11-19T08:04:04;1.03;;;1.03;;
9424;SDS011;17139;52.140;11.636;2023-11-19T08:06:31;2.33;;;1.30;;
9424;SDS011;17139;52.140;11.636;2023-11-19T08:08:57;1.43;;;1.33;;
9424;SDS011;17139;52.140;11.636;2023-11-19T08:11:24;3.38;;;1.75;;
9424;SDS011;17139;52.140;11.636;2023-11-19T08:13:53;1.33;;;1.10;;
9424;SDS011;17139;52.140;11.636;2023-11-19T08:16:20;2.53;;;1.60;;
9424;SDS011;17139;52.140;11.636;2023-11-19T08:18:47;4.28;;;1.55;;
9424;SDS011;17139;52.140;11.636;2023-11-19T08:21:15;3.67;;;1.85;;
9424;SDS011;17139;52.140;11.636;2023-11-19T08:23:42;2.17;;;1.33;;
9424;SDS011;17139;52.140;11.636;2023-11-19T08:26:09;4.23;;;1.57;;
9424;SDS011;17139;52.140;11.636;2023-11-19T08:28:37;3.63;;;1.50;;
9424;SDS011;17139;52.140;11.636;2023-11-19T08:31:06;2.67;;;1.73;;
9424;SDS011;17139;52.140;11.636;2023-11-19T08:33:33;1.87;;;1.77;;
9424;SDS011;17139;52.140;11.636;2023-11-19T08:36:00;2.70;;;1.73;;
9424;SDS011;17139;52.140;11.636;2023-11-19T08:38:29;4.93;;;2.03;;
9424;SDS011;17139;52.140;11.636;2023-11-19T08:40:56;4.63;;;1.80;;
9424;SDS011;17139;52.140;11.636;2023-11-19T08:43:25;3.97;;;1.67;;
9424;SDS011;17139;52.140;11.636;2023-11-19T08:45:52;1.70;;;1.60;;
9424;SDS011;17139;52.140;11.636;2023-11-19T08:48:21;1.83;;;1.73;;
9424;SDS011;17139;52.140;11.636;2023-11-19T08:50:48;4.55;;;1.88;;
9424;SDS011;17139;52.140;11.636;2023-11-19T08:53:15;3.70;;;2.20;;
9424;SDS011;17139;52.140;11.636;2023-11-19T08:55:42;3.50;;;2.10;;
9424;SDS011;17139;52.140;11.636;2023-11-19T08:58:10;7.25;;;2.20;;
9424;SDS011;17139;52.140;11.636;2023-11-19T09:00:37;3.95;;;1.88;;
9424;SDS011;17139;52.140;11.636;2023-11-19T09:03:04;3.85;;;2.00;;
9424;SDS011;17139;52.140;11.636;2023-11-19T09:05:33;5.13;;;2.13;;
9424;SDS011;17139;52.140;11.636;2023-11-19T09:08:00;5.82;;;2.22;;
9424;SDS011;17139;52.140;11.636;2023-11-19T09:10:27;1.50;;;1.35;;
9424;SDS011;17139;52.140;11.636;2023-11-19T09:12:55;4.50;;;1.90;;
9424;SDS011;17139;52.140;11.636;2023-11-19T09:15:22;7.13;;;2.47;;
9424;SDS011;17139;52.140;11.636;2023-11-19T09:17:49;4.57;;;1.95;;
9424;SDS011;17139;52.140;11.636;2023-11-19T09:20:17;4.15;;;2.10;;
9424;SDS011;17139;52.140;11.636;2023-11-19T09:22:45;3.78;;;1.73;;
9424;SDS011;17139;52.140;11.636;2023-11-19T09:25:13;5.00;;;2.28;;
9424;SDS011;17139;52.140;11.636;2023-11-19T09:27:42;7.28;;;2.67;;
9424;SDS011;17139;52.140;11.636;2023-11-19T09:30:09;2.90;;;2.47;;
9424;SDS011;17139;52.140;11.636;2023-11-19T09:32:37;10.32;;;2.30;;
9424;SDS011;17139;52.140;11.636;2023-11-19T09:35:05;8.00;;;2.53;;
9424;SDS011;17139;52.140;11.636;2023-11-19T09:37:33;6.03;;;2.08;;
9424;SDS011;17139;52.140;11.636;2023-11-19T09:40:02;5.68;;;2.35;;
9424;SDS011;17139;52.140;11.636;2023-11-19T09:42:29;8.10;;;2.25;;
9424;SDS011;17139;52.140;11.636;2023-11-19T09:45:05;7.88;;;2.35;;
9424;SDS011;17139;52.140;11.636;2023-11-19T09:47:39;9.10;;;3.13;;
9424;SDS011;17139;52.140;11.636;2023-11-19T09:50:07;9.20;;;2.70;;
9424;SDS011;17139;52.140;11.636;2023-11-19T09:52:35;2.38;;;2.17;;
9424;SDS011;17139;52.140;11.636;2023-11-19T09:55:04;6.25;;;2.70;;
9424;SDS011;17139;52.140;11.636;2023-11-19T09:57:32;7.53;;;2.73;;
9424;SDS011;17139;52.140;11.636;2023-11-19T10:00:02;11.43;;;3.17;;
9424;SDS011;17139;52.140;11.636;2023-11-19T10:02:33;7.32;;;2.67;;
9424;SDS011;17139;52.140;11.636;2023-11-19T10:05:02;5.68;;;2.92;;
9424;SDS011;17139;52.140;11.636;2023-11-19T10:07:32;9.65;;;3.33;;
9424;SDS011;17139;52.140;11.636;2023-11-19T10:09:59;4.05;;;2.80;;
9424;SDS011;17139;52.140;11.636;2023-11-19T10:12:30;18.00;;;3.42;;
9424;SDS011;17139;52.140;11.636;2023-11-19T10:14:58;4.82;;;2.70;;
9424;SDS011;17139;52.140;11.636;2023-11-19T10:17:28;7.35;;;2.38;;
9424;SDS011;17139;52.140;11.636;2023-11-19T10:19:58;9.82;;;2.90;;
9424;SDS011;17139;52.140;11.636;2023-11-19T10:22:26;9.23;;;3.30;;
9424;SDS011;17139;52.140;11.636;2023-11-19T10:24:54;6.78;;;2.97;;
9424;SDS011;17139;52.140;11.636;2023-11-19T10:27:23;9.98;;;3.22;;
9424;SDS011;17139;52.140;11.636;2023-11-19T10:29:52;12.88;;;3.25;;
9424;SDS011;17139;52.140;11.636;2023-11-19T10:32:20;9.82;;;3.25;;
9424;SDS011;17139;52.140;11.636;2023-11-19T10:34:47;10.82;;;3.60;;
9424;SDS011;17139;52.140;11.636;2023-11-19T10:37:27;12.40;;;3.88;;
9424;SDS011;17139;52.140;11.636;2023-11-19T10:39:57;15.07;;;3.33;;
9424;SDS011;17139;52.140;11.636;2023-11-19T10:42:24;8.82;;;3.22;;
9424;SDS011;17139;52.140;11.636;2023-11-19T10:44:53;5.65;;;2.92;;
9424;SDS011;17139;52.140;11.636;2023-11-19T10:47:20;8.85;;;3.17;;
9424;SDS011;17139;52.140;11.636;2023-11-19T10:49:49;8.75;;;3.53;;
9424;SDS011;17139;52.140;11.636;2023-11-19T10:52:17;13.10;;;3.25;;
9424;SDS011;17139;52.140;11.636;2023-11-19T10:54:47;10.52;;;3.55;;
9424;SDS011;17139;52.140;11.636;2023-11-19T10:57:19;10.70;;;3.42;;
9424;SDS011;17139;52.140;11.636;2023-11-19T10:59:49;7.28;;;3.03;;
9424;SDS011;17139;52.140;11.636;2023-11-19T11:02:21;9.13;;;3.20;;
9424;SDS011;17139;52.140;11.636;2023-11-19T11:04:52;6.53;;;3.17;;
9424;SDS011;17139;52.140;11.636;2023-11-19T11:07:21;14.57;;;2.97;;
9424;SDS011;17139;52.140;11.636;2023-11-19T11:09:51;9.18;;;3.67;;
9424;SDS011;17139;52.140;11.636;2023-11-19T11:12:20;15.33;;;4.00;;
9424;SDS011;17139;52.140;11.636;2023-11-19T11:14:50;10.57;;;3.20;;
9424;SDS011;17139;52.140;11.636;2023-11-19T11:17:19;15.40;;;3.97;;
9424;SDS011;17139;52.140;11.636;2023-11-19T11:19:51;12.48;;;3.42;;
9424;SDS011;17139;52.140;11.636;2023-11-19T11:22:20;6.95;;;3.25;;
9424;SDS011;17139;52.140;11.636;2023-11-19T11:25:03;4.82;;;2.35;;
9424;SDS011;17139;52.140;11.636;2023-11-19T11:31:03;8.38;;;2.88;;
9424;SDS011;17139;52.140;11.636;2023-11-19T11:33:58;14.10;;;3.58;;
9424;SDS011;17139;52.140;11.636;2023-11-19T11:36:39;10.07;;;3.55;;
9424;SDS011;17139;52.140;11.636;2023-11-19T11:39:16;12.57;;;3.55;;
9424;SDS011;17139;52.140;11.636;2023-11-19T11:41:45;14.93;;;3.58;;
9424;SDS011;17139;52.140;11.636;2023-11-19T11:44:12;6.70;;;2.80;;
9424;SDS011;17139;52.140;11.636;2023-11-19T11:46:56;11.18;;;3.42;;
9424;SDS011;17139;52.140;11.636;2023-11-19T11:49:26;11.35;;;3.58;;
9424;SDS011;17139;52.140;11.636;2023-11-19T11:52:02;10.85;;;2.95;;
9424;SDS011;17139;52.140;11.636;2023-11-19T11:54:30;8.68;;;3.17;;
9424;SDS011;17139;52.140;11.636;2023-11-19T11:57:02;14.32;;;3.28;;
9424;SDS011;17139;52.140;11.636;2023-11-19T11:59:31;10.07;;;2.60;;
9424;SDS011;17139;52.140;11.636;2023-11-19T12:02:05;10.02;;;3.78;;
9424;SDS011;17139;52.140;11.636;2023-11-19T12:04:35;8.93;;;2.35;;
9424;SDS011;17139;52.140;11.636;2023-11-19T12:07:03;7.63;;;2.97;;
9424;SDS011;17139;52.140;11.636;2023-11-19T12:09:31;4.20;;;1.40;;
9424;SDS011;17139;52.140;11.636;2023-11-19T12:15:02;10.43;;;3.22;;
9424;SDS011;17139;52.140;11.636;2023-11-19T12:17:43;10.55;;;3.30;;
9424;SDS011;17139;52.140;11.636;2023-11-19T12:20:15;8.07;;;2.78;;
9424;SDS011;17139;52.140;11.636;2023-11-19T12:22:44;8.90;;;2.75;;
9424;SDS011;17139;52.140;11.636;2023-11-19T12:25:14;9.52;;;2.85;;
9424;SDS011;17139;52.140;11.636;2023-11-19T12:27:43;3.60;;;2.08;;
9424;SDS011;17139;52.140;11.636;2023-11-19T12:30:12;4.13;;;2.28;;
9424;SDS011;17139;52.140;11.636;2023-11-19T12:32:45;4.78;;;2.20;;
9424;SDS011;17139;52.140;11.636;2023-11-19T12:35:12;5.32;;;2.10;;
9424;SDS011;17139;52.140;11.636;2023-11-19T12:37:40;12.52;;;3.15;;
9424;SDS011;17139;52.140;11.636;2023-11-19T12:40:17;10.77;;;3.20;;
9424;SDS011;17139;52.140;11.636;2023-11-19T12:42:45;19.27;;;3.97;;
9424;SDS011;17139;52.140;11.636;2023-11-19T12:45:13;7.90;;;2.95;;
9424;SDS011;17139;52.140;11.636;2023-11-19T12:47:43;6.53;;;3.22;;
9424;SDS011;17139;52.140;11.636;2023-11-19T12:50:13;12.25;;;3.80;;
9424;SDS011;17139;52.140;11.636;2023-11-19T12:52:42;5.97;;;2.63;;
9424;SDS011;17139;52.140;11.636;2023-11-19T12:55:24;5.47;;;2.80;;
9424;SDS011;17139;52.140;11.636;2023-11-19T12:57:52;6.20;;;3.13;;
9424;SDS011;17139;52.140;11.636;2023-11-19T13:00:20;5.47;;;2.78;;
9424;SDS011;17139;52.140;11.636;2023-11-19T13:02:50;8.13;;;2.95;;
9424;SDS011;17139;52.140;11.636;2023-11-19T13:05:25;8.07;;;3.50;;
9424;SDS011;17139;52.140;11.636;2023-11-19T13:08:03;8.05;;;3.33;;
9424;SDS011;17139;52.140;11.636;2023-11-19T13:10:32;9.43;;;3.17;;
9424;SDS011;17139;52.140;11.636;2023-11-19T13:13:03;5.60;;;2.97;;
9424;SDS011;17139;52.140;11.636;2023-11-19T13:15:32;3.85;;;1.88;;
9424;SDS011;17139;52.140;11.636;2023-11-19T13:18:01;5.00;;;3.28;;
9424;SDS011;17139;52.140;11.636;2023-11-19T13:20:29;7.40;;;3.58;;
9424;SDS011;17139;52.140;11.636;2023-11-19T13:22:57;7.93;;;2.92;;
9424;SDS011;17139;52.140;11.636;2023-11-19T13:25:25;12.30;;;3.45;;
9424;SDS011;17139;52.140;11.636;2023-11-19T13:27:52;5.43;;;2.38;;
9424;SDS011;17139;52.140;11.636;2023-11-19T13:30:20;7.68;;;2.45;;
9424;SDS011;17139;52.140;11.636;2023-11-19T13:32:48;9.05;;;3.47;;
9424;SDS011;17139;52.140;11.636;2023-11-19T13:35:18;12.38;;;4.07;;
9424;SDS011;17139;52.140;11.636;2023-11-19T13:37:45;8.60;;;3.75;;
9424;SDS011;17139;52.140;11.636;2023-11-19T13:40:12;9.10;;;3.10;;
9424;SDS011;17139;52.140;11.636;2023-11-19T13:42:40;6.22;;;2.35;;
9424;SDS011;17139;52.140;11.636;2023-11-19T13:45:08;15.70;;;3.50;;
9424;SDS011;17139;52.140;11.636;2023-11-19T13:47:38;13.45;;;2.78;;
9424;SDS011;17139;52.140;11.636;2023-11-19T13:50:07;13.40;;;4.22;;
9424;SDS011;17139;52.140;11.636;2023-11-19T13:52:37;12.90;;;4.13;;
9424;SDS011;17139;52.140;11.636;2023-11-19T13:55:06;8.45;;;3.42;;
9424;SDS011;17139;52.140;11.636;2023-11-19T13:57:35;14.38;;;3.63;;
9424;SDS011;17139;52.140;11.636;2023-11-19T14:00:03;16.48;;;4.03;;
9424;SDS011;17139;52.140;11.636;2023-11-19T14:02:32;7.85;;;2.80;;
9424;SDS011;17139;52.140;11.636;2023-11-19T14:04:59;10.35;;;3.75;;
9424;SDS011;17139;52.140;11.636;2023-11-19T14:07:26;9.75;;;3.55;;
9424;SDS011;17139;52.140;11.636;2023-11-19T14:09:55;9.25;;;3.17;;
9424;SDS011;17139;52.140;11.636;2023-11-19T14:12:23;10.50;;;3.45;;
9424;SDS011;17139;52.140;11.636;2023-11-19T14:14:50;8.52;;;3.70;;
9424;SDS011;17139;52.140;11.636;2023-11-19T14:17:17;12.93;;;3.45;;
9424;SDS011;17139;52.140;11.636;2023-11-19T14:19:44;11.95;;;3.25;;
9424;SDS011;17139;52.140;11.636;2023-11-19T14:22:12;8.73;;;3.13;;
9424;SDS011;17139;52.140;11.636;2023-11-19T14:24:39;8.02;;;3.17;;
9424;SDS011;17139;52.140;11.636;2023-11-19T14:27:09;6.22;;;2.50;;
9424;SDS011;17139;52.140;11.636;2023-11-19T14:29:38;16.48;;;3.85;;
9424;SDS011;17139;52.140;11.636;2023-11-19T14:32:05;15.90;;;3.55;;
9424;SDS011;17139;52.140;11.636;2023-11-19T14:34:33;7.72;;;2.80;;
9424;SDS011;17139;52.140;11.636;2023-11-19T14:37:00;6.57;;;3.00;;
9424;SDS011;17139;52.140;11.636;2023-11-19T14:39:27;14.20;;;3.72;;
9424;SDS011;17139;52.140;11.636;2023-11-19T14:41:56;7.72;;;2.78;;
9424;SDS011;17139;52.140;11.636;2023-11-19T14:44:27;8.13;;;3.58;;
9424;SDS011;17139;52.140;11.636;2023-11-19T14:46:54;13.00;;;3.60;;
9424;SDS011;17139;52.140;11.636;2023-11-19T14:49:22;5.32;;;3.15;;
9424;SDS011;17139;52.140;11.636;2023-11-19T14:51:50;12.98;;;3.63;;
9424;SDS011;17139;52.140;11.636;2023-11-19T14:54:17;10.20;;;3.17;;
9424;SDS011;17139;52.140;11.636;2023-11-19T14:56:44;12.55;;;3.47;;
9424;SDS011;17139;52.140;11.636;2023-11-19T14:59:12;11.35;;;2.97;;
9424;SDS011;17139;52.140;11.636;2023-11-19T15:01:40;16.48;;;3.30;;